createdAt,value
2022-11-09T00:01:02.568Z,17.23
2022-11-09T00:03:30.524Z,16.67
2022-11-09T00:06:00.542Z,16.33
2022-11-09T00:08:28.731Z,16.73
2022-11-09T00:10:56.445Z,16.33
2022-11-09T00:13:24.091Z,15.20
2022-11-09T00:15:51.804Z,16.57
2022-11-09T00:18:19.520Z,16.53
2022-11-09T00:20:48.430Z,16.03
2022-11-09T00:23:18.318Z,15.90
2022-11-09T00:25:46.230Z,15.83
2022-11-09T00:28:13.953Z,15.13
2022-11-09T00:30:44.348Z,16.97
2022-11-09T00:33:12.250Z,16.17
2022-11-09T00:35:40.435Z,16.00
2022-11-09T00:38:08.166Z,16.57
2022-11-09T00:40:37.176Z,15.37
2022-11-09T00:43:04.829Z,15.70
2022-11-09T00:45:32.480Z,14.80
2022-11-09T00:48:00.165Z,14.10
2022-11-09T00:50:27.834Z,13.87
2022-11-09T00:52:55.660Z,13.70
2022-11-09T00:55:24.007Z,13.00
2022-11-09T00:57:53.558Z,12.90
2022-11-09T01:00:23.211Z,13.53
2022-11-09T01:02:51.226Z,12.00
2022-11-09T01:05:19.648Z,12.07
2022-11-09T01:07:47.326Z,11.23
2022-11-09T01:10:14.972Z,11.30
2022-11-09T01:12:42.652Z,11.30
2022-11-09T01:15:12.062Z,11.37
2022-11-09T01:17:39.730Z,12.30
2022-11-09T01:20:08.724Z,11.47
2022-11-09T01:22:36.437Z,12.20
2022-11-09T01:25:04.183Z,11.67
2022-11-09T01:27:31.872Z,11.37
2022-11-09T01:29:59.589Z,11.47
2022-11-09T01:35:10.150Z,9.93
2022-11-09T01:37:37.801Z,10.07
2022-11-09T01:40:06.512Z,9.40
2022-11-09T01:42:36.602Z,10.87
2022-11-09T01:45:23.053Z,10.83
2022-11-09T01:47:53.684Z,10.43
2022-11-09T01:50:28.728Z,10.07
2022-11-09T01:52:56.476Z,9.10
2022-11-09T01:55:25.239Z,10.17
2022-11-09T01:57:57.451Z,9.00
2022-11-09T02:00:25.130Z,8.87
2022-11-09T02:02:56.644Z,9.17
2022-11-09T02:05:27.902Z,9.30
2022-11-09T02:07:56.711Z,9.27
2022-11-09T02:10:26.899Z,9.90
2022-11-09T02:12:54.747Z,10.10
2022-11-09T02:15:23.259Z,10.13
2022-11-09T02:17:53.807Z,9.43
2022-11-09T02:20:22.984Z,10.53
2022-11-09T02:22:50.831Z,10.20
2022-11-09T02:25:18.878Z,9.13
2022-11-09T02:27:46.897Z,8.77
2022-11-09T02:30:15.688Z,9.30
2022-11-09T02:32:49.979Z,9.17
2022-11-09T02:35:17.625Z,9.40
2022-11-09T02:37:49.551Z,9.53
2022-11-09T02:40:19.405Z,9.67
2022-11-09T02:42:47.062Z,9.97
2022-11-09T02:45:14.826Z,9.03
2022-11-09T02:47:42.464Z,9.67
2022-11-09T02:50:10.941Z,9.03
2022-11-09T02:52:38.658Z,9.07
2022-11-09T02:55:08.552Z,9.07
2022-11-09T02:57:36.240Z,8.33
2022-11-09T03:00:04.379Z,8.77
2022-11-09T03:02:32.385Z,8.87
2022-11-09T03:05:00.111Z,9.10
2022-11-09T03:07:27.803Z,10.03
2022-11-09T03:09:55.457Z,9.63
2022-11-09T03:12:30.441Z,9.13
2022-11-09T03:14:58.470Z,9.07
2022-11-09T03:17:26.522Z,9.60
2022-11-09T03:19:54.762Z,9.07
2022-11-09T03:22:22.649Z,9.50
2022-11-09T03:24:50.362Z,9.17
2022-11-09T03:27:18.257Z,8.97
2022-11-09T03:29:47.268Z,8.63
2022-11-09T03:32:14.899Z,8.07
2022-11-09T03:34:43.227Z,9.00
2022-11-09T03:37:11.006Z,8.77
2022-11-09T03:39:38.740Z,8.37
2022-11-09T03:42:06.569Z,9.00
2022-11-09T03:44:34.362Z,9.33
2022-11-09T03:47:03.410Z,8.73
2022-11-09T03:49:31.099Z,8.97
2022-11-09T03:51:58.795Z,9.87
2022-11-09T03:54:26.543Z,8.70
2022-11-09T03:56:54.248Z,8.47
2022-11-09T03:59:21.958Z,8.90
2022-11-09T04:01:49.668Z,9.30
2022-11-09T04:04:18.745Z,8.90
2022-11-09T04:06:46.464Z,9.00
2022-11-09T04:09:14.185Z,8.27
2022-11-09T04:11:41.858Z,8.47
2022-11-09T04:14:09.543Z,8.77
2022-11-09T04:16:37.226Z,8.77
2022-11-09T04:19:04.910Z,8.53
2022-11-09T04:21:34.177Z,9.23
2022-11-09T04:24:01.905Z,9.43
2022-11-09T04:26:29.582Z,9.10
2022-11-09T04:28:57.259Z,8.87
2022-11-09T04:31:28.030Z,8.27
2022-11-09T04:33:56.162Z,8.70
2022-11-09T04:36:24.280Z,8.40
2022-11-09T04:38:53.296Z,8.27
2022-11-09T04:41:21.143Z,7.70
2022-11-09T04:43:48.819Z,7.33
2022-11-09T04:46:16.492Z,7.27
2022-11-09T04:48:44.397Z,7.20
2022-11-09T04:51:12.282Z,7.77
2022-11-09T04:53:40.169Z,8.13
2022-11-09T04:56:09.568Z,8.23
2022-11-09T04:58:39.654Z,7.80
2022-11-09T05:01:08.652Z,7.70
2022-11-09T05:03:36.561Z,7.17
2022-11-09T05:06:25.285Z,7.27
2022-11-09T05:08:52.995Z,7.27
2022-11-09T05:11:22.410Z,7.27
2022-11-09T05:13:51.478Z,7.23
2022-11-09T05:16:19.614Z,7.80
2022-11-09T05:18:47.943Z,7.77
2022-11-09T05:21:16.024Z,7.40
2022-11-09T05:24:00.908Z,7.33
2022-11-09T05:26:32.476Z,6.70
2022-11-09T05:29:00.735Z,8.13
2022-11-09T05:31:29.047Z,6.90
2022-11-09T05:33:57.515Z,6.87
2022-11-09T05:36:25.306Z,6.37
2022-11-09T05:38:53.277Z,6.87
2022-11-09T05:41:21.388Z,6.90
2022-11-09T05:43:50.736Z,6.60
2022-11-09T05:46:19.344Z,6.60
2022-11-09T05:48:47.314Z,7.07
2022-11-09T05:51:16.046Z,6.90
2022-11-09T05:53:46.836Z,6.87
2022-11-09T05:56:15.911Z,7.60
2022-11-09T05:58:43.935Z,7.03
2022-11-09T06:01:15.032Z,7.20
2022-11-09T06:03:44.340Z,6.60
2022-11-09T06:06:13.791Z,7.47
2022-11-09T06:08:41.738Z,6.80
2022-11-09T06:11:12.001Z,6.73
2022-11-09T06:13:39.871Z,6.57
2022-11-09T06:16:08.034Z,6.57
2022-11-09T06:18:37.648Z,6.73
2022-11-09T06:21:06.724Z,7.10
2022-11-09T06:23:34.479Z,6.63
2022-11-09T06:26:03.660Z,6.57
2022-11-09T06:28:31.366Z,6.53
2022-11-09T06:30:59.348Z,6.50
2022-11-09T06:33:27.185Z,6.67
2022-11-09T06:35:57.745Z,7.13
2022-11-09T06:38:26.414Z,6.50
2022-11-09T06:40:54.607Z,6.47
2022-11-09T06:43:22.893Z,6.50
2022-11-09T06:45:50.972Z,6.57
2022-11-09T06:48:20.002Z,6.57
2022-11-09T06:50:47.944Z,6.50
2022-11-09T06:53:18.216Z,6.63
2022-11-09T06:55:50.545Z,6.60
2022-11-09T06:58:19.564Z,6.60
2022-11-09T07:00:47.496Z,6.93
2022-11-09T07:03:15.716Z,6.53
2022-11-09T07:05:43.804Z,6.20
2022-11-09T07:08:11.667Z,6.87
2022-11-09T07:10:41.257Z,6.93
2022-11-09T07:13:09.714Z,6.57
2022-11-09T07:15:38.780Z,6.57
2022-11-09T07:18:09.224Z,7.37
2022-11-09T07:20:36.909Z,6.57
2022-11-09T07:23:04.554Z,7.17
2022-11-09T07:25:32.718Z,5.93
2022-11-09T07:28:05.352Z,6.83
2022-11-09T07:30:33.074Z,7.30
2022-11-09T07:33:10.113Z,6.70
2022-11-09T07:35:38.541Z,6.40
2022-11-09T07:38:06.396Z,6.33
2022-11-09T07:40:34.103Z,6.37
2022-11-09T07:43:03.524Z,6.67
2022-11-09T07:45:33.862Z,6.23
2022-11-09T07:48:02.570Z,5.90
2022-11-09T07:50:31.478Z,5.87
2022-11-09T07:52:59.661Z,6.30
2022-11-09T07:55:28.040Z,6.20
2022-11-09T07:57:58.735Z,5.67
2022-11-09T08:00:27.616Z,5.50
2022-11-09T08:02:57.235Z,5.57
2022-11-09T08:05:25.014Z,5.60
2022-11-09T08:07:56.031Z,5.70
2022-11-09T08:10:24.300Z,5.70
2022-11-09T08:12:56.481Z,5.60
2022-11-09T08:15:24.647Z,5.53
2022-11-09T08:17:53.407Z,5.90
2022-11-09T08:20:22.576Z,5.60
2022-11-09T08:22:50.291Z,5.70
2022-11-09T08:25:18.152Z,6.07
2022-11-09T08:27:45.857Z,5.87
2022-11-09T08:30:15.746Z,5.50
2022-11-09T08:32:44.132Z,6.17
2022-11-09T08:35:16.855Z,5.73
2022-11-09T08:37:46.860Z,5.17
2022-11-09T08:40:16.168Z,4.97
2022-11-09T08:42:44.238Z,4.60
2022-11-09T09:05:12.021Z,6.73
2022-11-09T09:07:39.688Z,6.33
2022-11-09T09:10:08.279Z,5.43
2022-11-09T09:12:35.974Z,5.53
2022-11-09T09:15:03.857Z,5.53
2022-11-09T09:17:31.625Z,4.97
2022-11-09T09:19:59.822Z,5.03
2022-11-09T09:22:29.010Z,5.00
2022-11-09T09:24:56.754Z,5.33
2022-11-09T09:27:24.437Z,5.57
2022-11-09T09:29:53.753Z,4.87
2022-11-09T09:32:21.488Z,4.57
2022-11-09T09:34:49.289Z,5.20
2022-11-09T09:37:17.434Z,5.27
2022-11-09T09:39:46.577Z,4.73
2022-11-09T09:42:18.614Z,4.90
2022-11-09T09:44:51.035Z,4.63
2022-11-09T09:47:22.182Z,4.67
2022-11-09T09:49:54.847Z,5.30
2022-11-09T09:52:25.544Z,4.70
2022-11-09T09:54:59.612Z,4.23
2022-11-09T09:57:28.967Z,4.37
2022-11-09T09:59:59.338Z,4.63
2022-11-09T10:02:31.280Z,4.63
2022-11-09T10:05:02.116Z,4.63
2022-11-09T10:07:33.847Z,4.80
2022-11-09T10:10:16.343Z,4.63
2022-11-09T10:13:07.550Z,4.80
2022-11-09T10:15:39.590Z,4.00
2022-11-09T10:18:20.981Z,4.33
2022-11-09T10:21:03.503Z,4.37
2022-11-09T10:23:40.525Z,4.40
2022-11-09T10:26:18.740Z,4.33
2022-11-09T10:31:42.472Z,4.20
2022-11-09T10:34:18.329Z,4.73
2022-11-09T10:36:50.944Z,4.03
2022-11-09T10:39:18.619Z,4.63
2022-11-09T10:41:47.631Z,4.30
2022-11-09T10:44:17.980Z,4.90
2022-11-09T10:47:05.764Z,4.80
2022-11-09T10:49:34.096Z,4.13
2022-11-09T10:52:02.717Z,4.60
2022-11-09T10:54:33.701Z,4.40
2022-11-09T10:57:12.463Z,4.67
2022-11-09T10:59:50.612Z,5.13
2022-11-09T11:02:41.096Z,5.10
2022-11-09T11:05:25.767Z,6.30
2022-11-09T11:07:53.471Z,5.83
2022-11-09T11:10:22.181Z,5.90
2022-11-09T11:13:17.433Z,5.70
2022-11-09T11:15:46.825Z,5.47
2022-11-09T11:18:18.634Z,5.60
2022-11-09T11:20:46.694Z,6.20
2022-11-09T11:23:16.902Z,7.20
2022-11-09T11:26:00.180Z,6.90
2022-11-09T11:28:34.352Z,6.30
2022-11-09T11:31:02.661Z,6.60
2022-11-09T11:33:32.003Z,6.63
2022-11-09T11:36:06.283Z,7.13
2022-11-09T11:38:37.770Z,6.30
2022-11-09T11:41:23.132Z,6.70
2022-11-09T11:43:56.729Z,6.90
2022-11-09T11:46:31.905Z,7.77
2022-11-09T11:49:37.994Z,7.87
2022-11-09T11:52:12.020Z,8.20
2022-11-09T11:54:46.109Z,8.70
2022-11-09T11:57:19.264Z,8.47
2022-11-09T12:00:00.507Z,9.40
2022-11-09T12:02:48.147Z,9.53
2022-11-09T12:05:52.683Z,8.40
2022-11-09T12:08:23.917Z,8.60
2022-11-09T12:10:57.691Z,8.77
2022-11-09T12:13:45.781Z,8.70
2022-11-09T12:16:23.336Z,8.50
2022-11-09T12:19:00.076Z,8.47
2022-11-09T12:21:33.467Z,9.73
2022-11-09T12:24:09.462Z,9.90
2022-11-09T12:27:10.923Z,10.10
2022-11-09T12:29:46.196Z,9.50
2022-11-09T12:32:32.752Z,10.63
2022-11-09T12:35:13.143Z,13.43
2022-11-09T12:37:45.549Z,12.37
2022-11-09T12:40:19.646Z,13.30
2022-11-09T12:42:51.298Z,13.73
2022-11-09T12:45:24.197Z,13.53
2022-11-09T12:47:54.788Z,14.30
2022-11-09T12:50:25.452Z,15.20
2022-11-09T12:52:54.067Z,14.27
2022-11-09T12:55:26.001Z,14.80
2022-11-09T12:57:59.620Z,13.67
2022-11-09T13:00:52.715Z,13.87
2022-11-09T13:03:24.434Z,13.43
2022-11-09T13:06:11.411Z,13.70
2022-11-09T13:08:39.985Z,13.47
2022-11-09T13:11:22.617Z,14.73
2022-11-09T13:13:51.111Z,13.13
2022-11-09T13:16:38.636Z,13.90
2022-11-09T13:19:09.812Z,14.17
2022-11-09T13:21:40.060Z,14.70
2022-11-09T13:24:53.405Z,14.97
2022-11-09T13:27:42.578Z,14.63
2022-11-09T13:30:47.112Z,14.53
2022-11-09T13:33:25.763Z,14.00
2022-11-09T13:36:01.568Z,14.33
2022-11-09T13:38:31.315Z,14.67
2022-11-09T13:41:00.196Z,15.13
2022-11-09T13:43:30.682Z,15.90
2022-11-09T13:45:59.909Z,15.30
2022-11-09T13:48:41.681Z,15.87
2022-11-09T13:51:13.181Z,15.40
2022-11-09T13:53:53.859Z,14.93
2022-11-09T13:56:33.072Z,14.80
2022-11-09T13:59:06.196Z,15.40
2022-11-09T14:01:38.518Z,16.27
2022-11-09T14:04:06.468Z,15.93
2022-11-09T14:06:35.547Z,17.60
2022-11-09T14:09:03.968Z,17.20
2022-11-09T14:11:50.314Z,18.20
2022-11-09T14:14:40.657Z,18.93
2022-11-09T14:17:14.324Z,17.80
2022-11-09T14:19:49.472Z,17.00
2022-11-09T14:22:20.324Z,18.30
2022-11-09T14:24:48.387Z,22.83
2022-11-09T14:27:19.299Z,24.53
2022-11-09T14:29:55.164Z,26.13
2022-11-09T14:32:34.404Z,23.13
2022-11-09T14:35:13.068Z,21.00
2022-11-09T14:37:46.913Z,20.40
2022-11-09T14:40:23.075Z,20.50
2022-11-09T14:42:53.869Z,22.40
2022-11-09T14:45:21.753Z,22.00
2022-11-09T14:47:52.122Z,19.40
2022-11-09T14:50:22.410Z,19.67
2022-11-09T14:52:52.915Z,18.53
2022-11-09T14:55:21.917Z,19.37
2022-11-09T14:57:52.826Z,20.30
2022-11-09T15:00:33.023Z,21.70
2022-11-09T15:03:01.815Z,19.97
2022-11-09T15:05:32.867Z,19.17
2022-11-09T15:08:02.466Z,18.73
2022-11-09T15:10:32.533Z,19.10
2022-11-09T15:13:04.169Z,18.87
2022-11-09T15:15:33.364Z,17.33
2022-11-09T15:18:01.654Z,19.43
2022-11-09T15:20:33.056Z,20.57
2022-11-09T15:23:04.026Z,24.03
2022-11-09T15:25:34.200Z,25.20
2022-11-09T15:28:24.305Z,22.80
2022-11-09T15:31:12.715Z,26.63
2022-11-09T15:33:46.831Z,26.63
2022-11-09T15:36:30.187Z,27.70
2022-11-09T15:39:02.438Z,26.00
2022-11-09T15:41:30.483Z,22.90
2022-11-09T15:43:58.280Z,22.13
2022-11-09T15:46:28.270Z,22.03
2022-11-09T15:48:58.154Z,22.53
2022-11-09T15:51:25.868Z,20.10
2022-11-09T15:53:53.625Z,19.77
2022-11-09T15:56:24.945Z,19.90
2022-11-09T15:58:53.469Z,19.40
2022-11-09T16:01:21.207Z,19.47
2022-11-09T16:03:48.976Z,18.13
2022-11-09T16:06:19.050Z,18.27
2022-11-09T16:08:48.489Z,21.03
2022-11-09T16:11:16.229Z,21.67
2022-11-09T16:13:45.319Z,22.00
2022-11-09T16:16:14.604Z,22.37
2022-11-09T16:18:43.311Z,22.30
2022-11-09T16:21:12.174Z,21.00
2022-11-09T16:23:40.114Z,20.60
2022-11-09T16:26:09.556Z,20.33
2022-11-09T16:28:37.742Z,19.37
2022-11-09T16:31:07.294Z,20.03
2022-11-09T16:33:35.144Z,18.43
2022-11-09T16:36:04.668Z,20.53
2022-11-09T16:38:33.409Z,20.37
2022-11-09T16:41:02.086Z,19.97
2022-11-09T16:43:30.990Z,20.67
2022-11-09T16:45:59.092Z,18.63
2022-11-09T16:48:28.141Z,19.10
2022-11-09T16:50:55.827Z,19.23
2022-11-09T16:53:26.953Z,17.93
2022-11-09T16:55:55.358Z,18.27
2022-11-09T16:58:23.337Z,18.23
2022-11-09T17:03:41.447Z,18.37
2022-11-09T17:06:11.308Z,17.93
2022-11-09T17:08:39.326Z,18.13
2022-11-09T17:11:10.940Z,18.07
2022-11-09T17:13:38.987Z,17.27
2022-11-09T17:16:08.853Z,18.43
2022-11-09T17:18:37.599Z,17.53
2022-11-09T17:21:10.420Z,17.10
2022-11-09T17:23:38.486Z,17.17
2022-11-09T17:26:07.510Z,17.80
2022-11-09T17:28:41.463Z,17.73
2022-11-09T17:31:10.930Z,18.53
2022-11-09T17:33:38.561Z,18.67
2022-11-09T17:36:11.181Z,18.47
2022-11-09T17:38:39.113Z,18.03
2022-11-09T17:41:08.628Z,19.00
2022-11-09T17:43:39.785Z,20.47
2022-11-09T17:46:08.524Z,20.10
2022-11-09T17:48:37.257Z,19.93
2022-11-09T17:51:07.355Z,19.93
2022-11-09T17:53:35.091Z,19.77
2022-11-09T17:56:03.096Z,20.10
2022-11-09T17:58:31.378Z,20.97
2022-11-09T18:01:05.904Z,21.17
2022-11-09T18:03:33.730Z,20.50
2022-11-09T18:06:01.398Z,20.47
2022-11-09T18:08:30.572Z,20.47
2022-11-09T18:10:59.234Z,21.20
2022-11-09T18:13:27.443Z,21.33
2022-11-09T18:15:55.096Z,21.17
2022-11-09T18:18:23.686Z,22.07
2022-11-09T18:20:51.482Z,22.10
2022-11-09T18:23:19.095Z,21.07
2022-11-09T18:25:56.907Z,21.63
2022-11-09T18:28:24.542Z,22.43
2022-11-09T18:30:52.156Z,22.97
2022-11-09T18:33:20.718Z,23.67
2022-11-09T18:35:56.599Z,22.80
2022-11-09T18:38:28.998Z,23.30
2022-11-09T18:41:00.045Z,22.87
2022-11-09T18:43:27.795Z,21.77
2022-11-09T18:45:57.014Z,21.67
2022-11-09T18:48:24.928Z,22.00
2022-11-09T18:50:53.232Z,22.47
2022-11-09T18:53:21.670Z,23.97
2022-11-09T18:55:50.135Z,24.07
2022-11-09T18:58:19.780Z,25.33
2022-11-09T19:00:47.741Z,24.90
2022-11-09T19:03:16.462Z,25.67
2022-11-09T19:05:45.186Z,26.57
2022-11-09T19:08:12.879Z,25.07
2022-11-09T19:10:40.689Z,24.50
2022-11-09T19:13:08.334Z,24.33
2022-11-09T19:15:40.904Z,23.83
2022-11-09T19:18:08.544Z,25.30
2022-11-09T19:20:38.938Z,24.90
2022-11-09T19:23:06.625Z,24.87
2022-11-09T19:25:34.316Z,24.67
2022-11-09T19:28:01.984Z,26.23
2022-11-09T19:30:29.644Z,26.07
2022-11-09T19:32:58.770Z,26.27
2022-11-09T19:35:30.994Z,26.53
2022-11-09T19:38:05.970Z,26.33
2022-11-09T19:40:39.334Z,26.43
2022-11-09T19:43:07.555Z,25.80
2022-11-09T19:45:35.194Z,24.83
2022-11-09T19:48:04.286Z,27.57
2022-11-09T19:50:31.907Z,26.03
2022-11-09T19:52:59.547Z,26.60
2022-11-09T19:55:27.768Z,26.27
2022-11-09T19:57:55.541Z,25.70
2022-11-09T20:00:23.317Z,27.93
2022-11-09T20:02:50.960Z,27.27
2022-11-09T20:05:20.113Z,27.67
2022-11-09T20:07:47.712Z,26.93
2022-11-09T20:10:16.355Z,26.47
2022-11-09T20:12:54.658Z,26.73
2022-11-09T20:15:22.871Z,25.57
2022-11-09T20:17:50.555Z,25.10
2022-11-09T20:20:18.532Z,26.37
2022-11-09T20:22:47.905Z,26.20
2022-11-09T20:25:15.560Z,24.40
2022-11-09T20:27:43.218Z,25.80
2022-11-09T20:30:11.697Z,25.83
2022-11-09T20:32:39.369Z,27.73
2022-11-09T20:35:08.137Z,29.17
2022-11-09T20:37:36.192Z,29.47
2022-11-09T20:40:07.910Z,28.30
2022-11-09T20:42:35.927Z,27.37
2022-11-09T20:45:03.816Z,27.73
2022-11-09T20:48:02.074Z,29.60
2022-11-09T20:50:19.223Z,26.77
2022-11-09T20:52:46.894Z,26.27
2022-11-09T20:55:16.180Z,26.73
2022-11-09T20:57:43.872Z,27.57
2022-11-09T21:00:12.777Z,27.97
2022-11-09T21:02:40.454Z,27.53
2022-11-09T21:05:08.643Z,28.20
2022-11-09T21:07:36.355Z,27.53
2022-11-09T21:10:04.332Z,27.13
2022-11-09T21:12:33.412Z,27.13
2022-11-09T21:15:01.125Z,26.07
2022-11-09T21:17:28.834Z,25.07
2022-11-09T21:19:56.480Z,27.83
2022-11-09T21:22:44.127Z,28.57
2022-11-09T21:25:43.921Z,28.17
2022-11-09T21:28:33.527Z,27.30
2022-11-09T21:31:02.151Z,27.83
2022-11-09T21:33:30.072Z,28.77
2022-11-09T21:35:57.809Z,28.00
2022-11-09T21:38:25.459Z,30.13
2022-11-09T21:40:53.391Z,29.50
2022-11-09T21:43:22.769Z,28.27
2022-11-09T21:45:54.012Z,29.53
2022-11-09T21:48:21.891Z,27.50
2022-11-09T21:50:49.752Z,26.83
2022-11-09T21:53:17.441Z,26.23
2022-11-09T21:55:45.247Z,26.40
2022-11-09T21:58:12.908Z,26.23
2022-11-09T22:00:41.927Z,26.10
2022-11-09T22:03:09.657Z,27.23
2022-11-09T22:05:37.315Z,26.57
2022-11-09T22:08:05.257Z,27.13
2022-11-09T22:10:33.029Z,27.27
2022-11-09T22:13:18.778Z,26.53
2022-11-09T22:16:05.578Z,26.63
2022-11-09T22:18:51.388Z,26.87
2022-11-09T22:21:19.336Z,28.00
2022-11-09T22:23:46.977Z,28.90
2022-11-09T22:26:14.685Z,29.80
2022-11-09T22:28:42.594Z,30.50
2022-11-09T22:31:11.983Z,28.03
2022-11-09T22:33:39.621Z,30.07
2022-11-09T22:36:08.920Z,27.40
2022-11-09T22:38:36.590Z,27.47
2022-11-09T22:41:05.870Z,28.33
2022-11-09T22:43:33.970Z,27.87
2022-11-09T22:46:04.388Z,27.93
2022-11-09T22:48:33.882Z,28.50
2022-11-09T22:51:01.771Z,26.37
2022-11-09T22:53:29.550Z,27.43
2022-11-09T22:55:58.987Z,27.20
2022-11-09T22:58:27.719Z,28.53
2022-11-09T23:00:55.661Z,28.63
2022-11-09T23:03:23.622Z,27.60
2022-11-09T23:05:53.296Z,26.73
2022-11-09T23:08:20.972Z,27.77
2022-11-09T23:10:55.106Z,27.00
2022-11-09T23:13:22.996Z,26.93
2022-11-09T23:15:55.594Z,27.63
2022-11-09T23:18:41.089Z,27.50
2022-11-09T23:21:10.113Z,25.93
2022-11-09T23:23:38.206Z,27.07
2022-11-09T23:26:06.529Z,27.47
2022-11-09T23:28:34.609Z,27.83
2022-11-09T23:31:03.483Z,28.23
2022-11-09T23:33:31.251Z,27.30
2022-11-09T23:36:01.109Z,27.33
2022-11-09T23:38:30.430Z,28.43
2022-11-09T23:41:02.308Z,28.97
2022-11-09T23:43:30.052Z,28.03
2022-11-09T23:46:01.557Z,28.87
2022-11-09T23:48:29.516Z,30.03
2022-11-09T23:51:01.795Z,28.30
2022-11-09T23:53:31.497Z,28.83
2022-11-09T23:56:02.408Z,28.70
2022-11-09T23:58:30.694Z,30.07
